createdAt,value
2019-01-15T00:03:29.875Z,70.83
2019-01-15T00:06:18.734Z,70.83
2019-01-15T00:09:08.010Z,70.85
2019-01-15T00:11:56.862Z,70.44
2019-01-15T00:14:45.647Z,70.27
2019-01-15T00:17:34.494Z,69.96
2019-01-15T00:20:23.346Z,70.11
2019-01-15T00:23:12.328Z,70.11
2019-01-15T00:26:01.150Z,70.11
2019-01-15T00:28:49.977Z,70.12
2019-01-15T00:31:31.633Z,70.19
2019-01-15T00:34:20.472Z,70.33
2019-01-15T00:37:09.357Z,70.41
2019-01-15T00:39:58.283Z,70.36
2019-01-15T00:42:47.148Z,70.62
2019-01-15T00:45:36.021Z,70.79
2019-01-15T00:48:24.858Z,70.86
2019-01-15T00:51:13.785Z,70.54
2019-01-15T00:54:02.628Z,70.59
2019-01-15T00:56:51.453Z,70.47
2019-01-15T00:59:40.332Z,70.11
2019-01-15T01:02:09.890Z,69.70
2019-01-15T01:04:58.814Z,69.54
2019-01-15T01:07:47.708Z,69.57
2019-01-15T01:10:29.379Z,69.32
2019-01-15T01:13:18.331Z,69.15
2019-01-15T01:16:07.240Z,69.34
2019-01-15T01:18:56.068Z,69.22
2019-01-15T01:21:44.936Z,68.93
2019-01-15T01:24:33.781Z,69.00
2019-01-15T01:27:22.593Z,69.02
2019-01-15T01:30:30.768Z,69.05
2019-01-15T01:33:19.719Z,69.18
2019-01-15T01:36:08.565Z,69.10
2019-01-15T01:38:57.495Z,69.13
2019-01-15T01:41:46.305Z,69.01
2019-01-15T01:44:35.219Z,69.13
2019-01-15T01:47:24.086Z,69.29
2019-01-15T01:50:33.864Z,69.23
2019-01-15T01:53:22.720Z,69.44
2019-01-15T01:56:11.638Z,69.42
2019-01-15T01:59:00.495Z,69.56
2019-01-15T02:01:49.468Z,69.67
2019-01-15T02:04:18.984Z,70.00
2019-01-15T02:06:48.588Z,70.26
2019-01-15T02:15:29.663Z,70.84
2019-01-15T02:18:18.508Z,71.16
2019-01-15T02:21:07.385Z,71.32
2019-01-15T02:23:56.310Z,71.33
2019-01-15T02:29:42.080Z,71.43
2019-01-15T02:32:24.108Z,71.27
2019-01-15T02:35:13.084Z,71.46
2019-01-15T02:38:01.886Z,71.65
2019-01-15T02:40:50.770Z,71.67
2019-01-15T02:43:39.571Z,71.70
2019-01-15T02:46:28.416Z,71.70
2019-01-15T02:49:17.210Z,71.91
2019-01-15T02:52:06.110Z,71.98
2019-01-15T02:54:35.598Z,72.08
2019-01-15T02:57:24.425Z,71.91
2019-01-15T03:00:34.247Z,71.89
2019-01-15T03:03:23.040Z,71.99
2019-01-15T03:06:11.971Z,72.03
2019-01-15T03:09:00.923Z,71.99
2019-01-15T03:11:49.731Z,72.08
2019-01-15T03:14:38.582Z,72.19
2019-01-15T03:17:27.382Z,72.37
2019-01-15T03:20:37.691Z,72.36
2019-01-15T03:23:26.686Z,72.40
2019-01-15T03:26:15.514Z,72.37
2019-01-15T03:28:57.422Z,72.42
2019-01-15T03:31:46.225Z,72.29
2019-01-15T03:34:27.538Z,72.13
2019-01-15T03:36:57.053Z,72.24
2019-01-15T03:39:45.868Z,72.31
2019-01-15T03:42:34.774Z,72.42
2019-01-15T03:45:23.650Z,72.51
2019-01-15T03:48:12.508Z,72.59
2019-01-15T03:50:41.989Z,72.74
2019-01-15T03:53:30.837Z,72.64
2019-01-15T03:56:19.644Z,72.84
2019-01-15T03:59:08.480Z,72.83
2019-01-15T04:01:57.319Z,73.01
2019-01-15T04:04:46.698Z,73.12
2019-01-15T04:10:31.452Z,73.12
2019-01-15T04:13:21.887Z,73.18
2019-01-15T04:16:10.886Z,73.17
2019-01-15T04:18:59.704Z,73.15
2019-01-15T04:21:48.550Z,73.16
2019-01-15T04:24:37.396Z,73.17
2019-01-15T04:27:26.257Z,73.21
2019-01-15T04:30:36.047Z,73.21
2019-01-15T04:33:17.867Z,73.25
2019-01-15T04:36:06.784Z,73.08
2019-01-15T04:38:55.616Z,73.12
2019-01-15T04:41:44.530Z,73.11
2019-01-15T04:44:33.420Z,73.13
2019-01-15T04:47:22.228Z,73.09
2019-01-15T04:50:11.258Z,72.90
2019-01-15T04:55:55.683Z,72.68
2019-01-15T04:58:46.347Z,72.65
2019-01-15T05:01:35.142Z,72.62
2019-01-15T05:04:24.103Z,72.54
2019-01-15T05:07:13.000Z,72.55
2019-01-15T05:10:01.869Z,72.39
2019-01-15T05:12:50.744Z,72.34
2019-01-15T05:15:39.591Z,72.30
2019-01-15T05:18:28.445Z,72.34
2019-01-15T05:21:17.267Z,72.23
2019-01-15T05:24:06.294Z,72.36
2019-01-15T05:26:55.114Z,72.26
2019-01-15T05:29:44.018Z,72.31
2019-01-15T05:32:32.895Z,72.05
2019-01-15T05:35:14.346Z,71.69
2019-01-15T05:38:03.160Z,71.50
2019-01-15T05:40:52.077Z,71.35
2019-01-15T05:43:40.918Z,71.38
2019-01-15T05:46:29.768Z,71.46
2019-01-15T05:49:18.580Z,71.24
2019-01-15T05:52:07.431Z,71.03
2019-01-15T05:54:56.335Z,70.84
2019-01-15T05:57:45.207Z,70.83
2019-01-15T06:00:34.124Z,71.21
2019-01-15T06:03:23.041Z,71.07
2019-01-15T06:06:11.940Z,71.05
2019-01-15T06:09:00.761Z,71.31
2019-01-15T06:11:49.251Z,71.17
2019-01-15T06:14:37.747Z,71.26
2019-01-15T06:17:26.695Z,71.25
2019-01-15T06:20:36.438Z,71.36
2019-01-15T06:23:25.302Z,71.31
2019-01-15T06:26:07.361Z,71.41
2019-01-15T06:28:56.420Z,71.40
2019-01-15T06:31:45.269Z,71.15
2019-01-15T06:34:34.147Z,71.32
2019-01-15T06:37:22.995Z,71.15
2019-01-15T06:40:31.141Z,71.13
2019-01-15T06:43:19.990Z,71.13
2019-01-15T06:46:08.873Z,71.20
2019-01-15T06:48:57.783Z,71.02
2019-01-15T06:51:27.369Z,70.95
2019-01-15T06:54:16.268Z,70.82
2019-01-15T06:57:05.283Z,70.84
2019-01-15T06:59:55.055Z,70.61
2019-01-15T07:02:44.730Z,70.50
2019-01-15T07:05:33.651Z,70.64
2019-01-15T07:08:03.361Z,70.63
2019-01-15T07:10:52.269Z,70.54
2019-01-15T07:13:41.077Z,70.55
2019-01-15T07:19:10.107Z,70.68
2019-01-15T07:21:52.293Z,70.44
2019-01-15T07:24:53.108Z,70.28
2019-01-15T07:27:12.411Z,70.33
2019-01-15T07:30:01.238Z,70.33
2019-01-15T07:32:30.796Z,70.47
2019-01-15T07:35:19.718Z,70.51
2019-01-15T07:38:08.590Z,70.11
2019-01-15T07:40:57.427Z,70.09
2019-01-15T07:43:46.232Z,69.97
2019-01-15T07:46:35.074Z,70.09
2019-01-15T07:49:23.874Z,70.36
2019-01-15T07:51:53.365Z,69.71
2019-01-15T07:57:38.168Z,70.18
2019-01-15T08:00:27.344Z,70.14
2019-01-15T08:03:16.252Z,69.95
2019-01-15T08:06:05.544Z,70.04
2019-01-15T08:08:54.360Z,69.94
2019-01-15T08:11:43.385Z,69.64
2019-01-15T08:14:32.277Z,69.61
2019-01-15T08:17:21.105Z,69.97
2019-01-15T08:20:30.875Z,70.04
2019-01-15T08:23:19.346Z,69.90
2019-01-15T08:26:07.896Z,70.41
2019-01-15T08:28:37.525Z,70.32
2019-01-15T08:31:26.954Z,70.19
2019-01-15T08:34:15.795Z,69.94
2019-01-15T08:37:04.745Z,70.13
2019-01-15T08:39:53.552Z,70.04
2019-01-15T08:42:42.494Z,69.86
2019-01-15T08:45:31.391Z,69.85
2019-01-15T08:48:19.900Z,70.06
2019-01-15T08:56:40.654Z,70.23
2019-01-15T08:59:29.496Z,70.05
2019-01-15T09:02:17.995Z,70.06
2019-01-15T09:05:07.238Z,70.01
2019-01-15T09:07:56.130Z,70.08
2019-01-15T09:10:37.563Z,69.67
2019-01-15T09:13:07.249Z,69.72
2019-01-15T09:15:56.076Z,70.00
2019-01-15T09:18:25.652Z,69.82
2019-01-15T09:21:14.553Z,70.29
2019-01-15T09:24:03.383Z,69.78
2019-01-15T09:26:52.299Z,69.77
2019-01-15T09:29:41.300Z,69.50
2019-01-15T09:32:30.208Z,69.37
2019-01-15T09:35:12.297Z,69.43
2019-01-15T09:40:56.602Z,69.51
2019-01-15T09:43:46.141Z,69.20
2019-01-15T09:46:35.069Z,69.33
2019-01-15T09:49:23.879Z,69.31
2019-01-15T09:52:20.212Z,69.06
2019-01-15T09:55:03.613Z,68.83
2019-01-15T09:57:33.146Z,68.61
2019-01-15T10:00:22.103Z,68.80
2019-01-15T10:03:10.972Z,68.53
2019-01-15T10:05:59.873Z,68.72
2019-01-15T10:08:48.745Z,68.74
2019-01-15T10:11:39.168Z,68.18
2019-01-15T10:14:21.370Z,68.20
2019-01-15T10:17:10.302Z,68.14
2019-01-15T10:19:59.114Z,68.34
2019-01-15T10:22:48.672Z,68.36
2019-01-15T10:28:15.350Z,69.06
2019-01-15T10:31:25.453Z,68.60
2019-01-15T10:34:35.322Z,68.15
2019-01-15T10:37:24.162Z,68.09
2019-01-15T10:40:12.996Z,68.11
2019-01-15T10:43:01.874Z,68.13
2019-01-15T10:45:50.731Z,68.10
2019-01-15T10:48:39.549Z,67.79
2019-01-15T10:51:28.385Z,67.87
2019-01-15T10:54:17.206Z,67.92
2019-01-15T10:57:06.181Z,67.94
2019-01-15T10:59:55.012Z,67.53
2019-01-15T11:02:43.876Z,67.12
2019-01-15T11:05:32.738Z,66.82
2019-01-15T11:08:02.307Z,67.05
2019-01-15T11:10:51.226Z,67.07
2019-01-15T11:13:40.136Z,67.11
2019-01-15T11:16:28.933Z,67.42
2019-01-15T11:19:17.785Z,65.75
2019-01-15T11:22:06.727Z,65.86
2019-01-15T11:24:55.606Z,65.15
2019-01-15T11:27:44.561Z,63.66
2019-01-15T11:30:40.555Z,63.52
2019-01-15T11:33:10.077Z,62.23
2019-01-15T11:35:58.949Z,62.21
2019-01-15T11:38:40.597Z,62.03
2019-01-15T11:41:29.480Z,62.68
2019-01-15T11:43:58.973Z,62.94
2019-01-15T11:46:47.889Z,63.23
2019-01-15T11:49:36.739Z,62.49
2019-01-15T11:52:25.588Z,61.43
2019-01-15T11:55:15.106Z,61.09
2019-01-15T11:58:03.926Z,61.54
2019-01-15T12:04:08.219Z,61.67
2019-01-15T12:07:16.103Z,62.02
2019-01-15T12:17:08.743Z,62.16
2019-01-15T12:20:00.598Z,62.66
2019-01-15T12:25:34.134Z,62.08
2019-01-15T12:29:08.924Z,62.30
2019-01-15T12:31:58.842Z,62.45
2019-01-15T12:38:06.217Z,62.05
2019-01-15T12:41:14.097Z,61.75
2019-01-15T12:44:21.942Z,62.27
2019-01-15T12:47:29.963Z,62.34
2019-01-15T12:50:37.892Z,62.12
2019-01-15T12:53:45.833Z,61.19
2019-01-15T12:56:29.312Z,62.36
2019-01-15T12:59:37.196Z,62.74
2019-01-15T13:08:17.279Z,62.23
2019-01-15T13:11:05.987Z,62.19
2019-01-15T13:14:13.941Z,62.13
2019-01-15T13:17:21.829Z,61.73
2019-01-15T13:20:50.604Z,61.87
2019-01-15T13:30:04.092Z,62.67
2019-01-15T13:36:07.791Z,62.59
2019-01-15T13:42:11.760Z,63.08
2019-01-15T13:45:19.657Z,63.10
2019-01-15T13:48:27.798Z,63.20
2019-01-15T13:54:45.068Z,62.55
2019-01-15T13:57:53.003Z,63.31
2019-01-15T14:00:41.604Z,62.91
2019-01-15T14:03:49.468Z,63.64
2019-01-15T14:06:38.021Z,63.40
2019-01-15T14:09:45.995Z,62.96
2019-01-15T14:12:53.843Z,63.56
2019-01-15T14:15:55.036Z,63.72
2019-01-15T14:18:43.622Z,63.43
2019-01-15T14:21:32.171Z,63.30
2019-01-15T14:24:40.045Z,63.42
2019-01-15T14:36:39.032Z,63.49
2019-01-15T14:39:39.770Z,63.76
2019-01-15T14:42:47.657Z,64.25
2019-01-15T14:45:56.621Z,63.39
2019-01-15T14:48:45.868Z,64.58
2019-01-15T14:51:53.748Z,64.30
2019-01-15T14:55:01.612Z,64.90
2019-01-15T14:57:50.178Z,64.84
2019-01-15T15:00:58.130Z,64.37
2019-01-15T15:06:42.630Z,65.52
2019-01-15T15:09:31.250Z,64.95
2019-01-15T15:12:39.127Z,65.02
2019-01-15T15:21:52.329Z,65.28
2019-01-15T15:25:00.279Z,65.02
2019-01-15T15:28:08.215Z,65.37
2019-01-15T15:30:56.822Z,65.43
2019-01-15T15:34:04.719Z,65.38
2019-01-15T15:37:12.915Z,65.39
2019-01-15T15:40:14.236Z,65.82
2019-01-15T15:43:22.193Z,65.62
2019-01-15T15:46:30.131Z,65.70
2019-01-15T15:49:38.033Z,65.95
2019-01-15T15:52:45.989Z,65.97
2019-01-15T15:55:53.935Z,66.02
2019-01-15T15:59:01.856Z,66.31
2019-01-15T16:05:19.215Z,66.30
2019-01-15T16:08:27.166Z,66.09
2019-01-15T16:17:07.826Z,66.01
2019-01-15T16:23:05.829Z,65.69
2019-01-15T16:26:13.771Z,65.94
2019-01-15T16:29:02.328Z,66.11
2019-01-15T16:31:50.856Z,66.00
2019-01-15T16:34:39.416Z,66.20
2019-01-15T16:40:34.505Z,66.02
2019-01-15T16:43:42.473Z,65.91
2019-01-15T16:46:50.391Z,66.07
2019-01-15T16:49:58.485Z,66.00
2019-01-15T16:53:06.494Z,66.19
2019-01-15T16:55:55.137Z,66.10
2019-01-15T16:59:03.029Z,65.99
2019-01-15T17:02:10.980Z,65.97
2019-01-15T17:05:18.941Z,66.17
2019-01-15T17:08:26.885Z,66.00
2019-01-15T17:11:34.884Z,65.91
2019-01-15T17:14:42.794Z,66.17
2019-01-15T17:17:31.380Z,66.29
2019-01-15T17:23:38.530Z,66.10
2019-01-15T17:29:23.090Z,66.08
2019-01-15T17:32:30.961Z,66.57
2019-01-15T17:35:38.825Z,66.07
2019-01-15T17:38:39.139Z,65.93
2019-01-15T17:44:23.640Z,66.31
2019-01-15T17:47:31.656Z,66.10
2019-01-15T17:50:39.666Z,66.31
2019-01-15T17:56:56.987Z,65.52
2019-01-15T17:59:45.527Z,65.54
2019-01-15T18:02:53.394Z,65.81
2019-01-15T18:06:01.326Z,65.31
2019-01-15T18:09:09.210Z,65.73
2019-01-15T18:12:17.109Z,65.42
2019-01-15T18:14:46.463Z,65.24
2019-01-15T18:17:54.333Z,65.25
2019-01-15T18:21:02.297Z,64.90
2019-01-15T18:27:19.571Z,65.19
2019-01-15T18:30:48.393Z,64.85
2019-01-15T18:33:56.358Z,65.10
2019-01-15T18:37:04.251Z,65.12
2019-01-15T18:39:48.052Z,64.72
2019-01-15T18:42:55.977Z,64.65
2019-01-15T18:46:03.877Z,65.04
2019-01-15T18:49:11.737Z,64.96
2019-01-15T18:52:19.692Z,64.92
2019-01-15T18:58:37.125Z,64.93
2019-01-15T19:01:25.803Z,65.04
2019-01-15T19:04:33.751Z,64.89
2019-01-15T19:07:22.373Z,64.79
2019-01-15T19:10:30.475Z,64.44
2019-01-15T19:13:19.072Z,64.32
2019-01-15T19:16:27.085Z,64.29
2019-01-15T19:19:12.060Z,64.06
2019-01-15T19:25:15.890Z,64.50
2019-01-15T19:28:23.817Z,64.71
2019-01-15T19:31:31.689Z,64.81
2019-01-15T19:34:39.630Z,64.48
2019-01-15T19:37:47.490Z,64.50
2019-01-15T19:46:25.390Z,64.21
2019-01-15T19:49:33.327Z,64.21
2019-01-15T19:52:41.184Z,63.98
2019-01-15T19:55:49.041Z,63.84
2019-01-15T20:01:52.721Z,64.15
2019-01-15T20:04:41.340Z,64.54
2019-01-15T20:07:49.283Z,64.19
2019-01-15T20:16:34.228Z,64.14
2019-01-15T20:19:16.399Z,64.28
2019-01-15T20:22:05.092Z,64.37
2019-01-15T20:25:12.944Z,64.21
2019-01-15T20:28:01.625Z,64.38
2019-01-15T20:31:09.572Z,64.24
2019-01-15T20:34:17.452Z,64.60
2019-01-15T20:37:25.395Z,64.39
2019-01-15T20:40:33.452Z,64.51
2019-01-15T20:43:41.407Z,64.82
2019-01-15T20:46:49.364Z,64.65
2019-01-15T20:49:57.212Z,64.60
2019-01-15T20:53:05.174Z,64.74
2019-01-15T20:55:53.879Z,64.86
2019-01-15T20:59:01.774Z,64.84
2019-01-15T21:02:09.727Z,65.14
2019-01-15T21:05:17.594Z,65.01
2019-01-15T21:08:25.571Z,65.33
2019-01-15T21:11:33.467Z,65.44
2019-01-15T21:14:41.434Z,65.45
2019-01-15T21:20:45.237Z,65.43
2019-01-15T21:23:33.815Z,65.31
2019-01-15T21:26:41.755Z,65.76
2019-01-15T21:29:49.644Z,65.55
2019-01-15T21:32:38.240Z,65.69
2019-01-15T21:35:46.125Z,66.05
2019-01-15T21:38:53.967Z,66.15
2019-01-15T21:41:37.195Z,66.76
2019-01-15T21:47:54.521Z,66.90
2019-01-15T21:50:43.352Z,67.46
2019-01-15T21:53:31.967Z,67.39
2019-01-15T21:59:49.436Z,67.48
2019-01-15T22:06:06.767Z,67.89
2019-01-15T22:09:14.661Z,67.57
2019-01-15T22:12:22.480Z,67.86
2019-01-15T22:15:30.446Z,67.73
2019-01-15T22:18:38.325Z,67.50
2019-01-15T22:21:46.231Z,67.53
2019-01-15T22:24:54.075Z,67.66
2019-01-15T22:30:57.765Z,67.34
2019-01-15T22:34:05.600Z,67.50
2019-01-15T22:36:54.291Z,67.44
2019-01-15T22:40:02.154Z,67.15
2019-01-15T22:42:50.719Z,67.31
2019-01-15T22:48:38.638Z,67.41
2019-01-15T22:51:46.503Z,67.36
2019-01-15T22:57:50.176Z,67.09
2019-01-15T23:01:18.958Z,67.59
2019-01-15T23:04:47.749Z,67.33
2019-01-15T23:07:55.700Z,67.38
2019-01-15T23:11:03.532Z,67.64
2019-01-15T23:14:11.480Z,67.40
2019-01-15T23:17:19.362Z,67.22
2019-01-15T23:20:48.142Z,67.30
2019-01-15T23:23:56.079Z,67.12
2019-01-15T23:27:03.904Z,67.29
2019-01-15T23:30:11.830Z,67.12
2019-01-15T23:33:19.662Z,67.05
2019-01-15T23:39:44.583Z,67.34
2019-01-15T23:42:27.619Z,67.18
2019-01-15T23:45:28.696Z,67.13
2019-01-15T23:48:36.605Z,67.02
2019-01-15T23:51:44.427Z,66.79
2019-01-15T23:54:32.970Z,66.92
2019-01-15T23:57:40.881Z,67.05
